PWSweather.com
Personal Weather Stations
Station Observations
KTXROWLE6
Ravens Nest, Rowlett, TX 75089

Ravens NestRowlett, TX 75089

Lat: 32.93105, Lon: -96.57368

Elevation: 556

Station Type: Davis Vantage Pro2 6152

http://rowlett.ws

Latest ConditionsUpdated 11:00:00 AM CST Sunday, Jan 26, 2020
Currently Today's Max Today's Min Today's Average
Temperature 57.1°F13.9°C 57.1°F13.9°C 55.4°F13.0°C 56.2°F13.4°C
Dew Point 48.5°F9.2°C 50.9°F10.5°C 46.9°F8.3°C 48.8°F9.3°C
Winds 3.9 mph NNW6.3 kmh NNW 5.6 mph -9.0 kmh - - 2.6 mph 4.2 kmh
Wind Gusts 8.0 mph12.9 kmh 12.0 mph19.3 kmh - -
Humidity 73% 83% 70% 76%
Pressure 30.04 in1017.3 mb 30.04 in1017.3 mb 29.96 in1014.6 mb -
Hour Temp Dew Point Humidity Winds Wind Gusts Pressure Precip Precip Rate Daily Precip Total
11:00 AM 57.1°F13.9°C 48.5°F9.2°C 73% 3.9 mph NNW6.3 kmh NNW 8.0 mph12.9 kmh 30.04 in1017.3 mb 0.00 in0.0 mm 0.00 in0.0 mm 0.00 in0.0 mm
10:55 AM 57.1°F13.9°C 48.5°F9.2°C 73% 4.8 mph NW7.7 kmh NW 8.0 mph12.9 kmh 30.04 in1017.3 mb 0.00 in0.0 mm 0.00 in0.0 mm 0.00 in0.0 mm
10:50 AM 56.8°F13.8°C 48.2°F9.0°C 73% 4.1 mph NW6.6 kmh NW 7.0 mph11.3 kmh 30.04 in1017.3 mb 0.00 in0.0 mm 0.00 in0.0 mm 0.00 in0.0 mm
10:45 AM 56.6°F13.7°C 48.0°F8.9°C 73% 3.9 mph NW6.3 kmh NW 7.0 mph11.3 kmh 30.04 in1017.3 mb 0.00 in0.0 mm 0.00 in0.0 mm 0.00 in0.0 mm
10:40 AM 56.5°F13.6°C 47.9°F8.8°C 73% 2.7 mph NNW4.3 kmh NNW 7.0 mph11.3 kmh 30.04 in1017.3 mb 0.00 in0.0 mm 0.00 in0.0 mm 0.00 in0.0 mm
10:35 AM 56.4°F13.6°C 47.9°F8.8°C 73% 2.9 mph NNW4.7 kmh NNW 6.0 mph9.7 kmh 30.04 in1017.3 mb 0.00 in0.0 mm 0.00 in0.0 mm 0.00 in0.0 mm
10:30 AM 56.3°F13.5°C 47.8°F8.8°C 73% 3.8 mph NNW6.1 kmh NNW 6.0 mph9.7 kmh 30.04 in1017.3 mb 0.00 in0.0 mm 0.00 in0.0 mm 0.00 in0.0 mm
10:25 AM 56.3°F13.5°C 47.8°F8.8°C 73% 3.8 mph NNW6.1 kmh NNW 6.0 mph9.7 kmh 30.04 in1017.3 mb 0.00 in0.0 mm 0.00 in0.0 mm 0.00 in0.0 mm
10:20 AM 56.3°F13.5°C 47.8°F8.8°C 73% 3.2 mph NNW5.1 kmh NNW 7.0 mph11.3 kmh 30.04 in1017.3 mb 0.00 in0.0 mm 0.00 in0.0 mm 0.00 in0.0 mm
10:15 AM 56.2°F13.4°C 47.7°F8.7°C 73% 3.5 mph NNW5.6 kmh NNW 8.0 mph12.9 kmh 30.04 in1017.3 mb 0.00 in0.0 mm 0.00 in0.0 mm 0.00 in0.0 mm
10:10 AM 56.3°F13.5°C 47.8°F8.8°C 73% 5.3 mph NNW8.5 kmh NNW 8.0 mph12.9 kmh 30.04 in1017.3 mb 0.00 in0.0 mm 0.00 in0.0 mm 0.00 in0.0 mm
10:05 AM 56.3°F13.5°C 47.8°F8.8°C 73% 3.4 mph N5.5 kmh N 5.0 mph8.0 kmh 30.04 in1017.3 mb 0.00 in0.0 mm 0.00 in0.0 mm 0.00 in0.0 mm
10:00 AM 56.3°F13.5°C 47.8°F8.8°C 73% 2.6 mph N4.2 kmh N 5.0 mph8.0 kmh 30.03 in1016.9 mb 0.00 in0.0 mm 0.00 in0.0 mm 0.00 in0.0 mm
09:55 AM 56.2°F13.4°C 48.0°F8.9°C 74% 2.2 mph N3.5 kmh N 7.0 mph11.3 kmh 30.03 in1016.9 mb 0.00 in0.0 mm 0.00 in0.0 mm 0.00 in0.0 mm
09:50 AM 55.9°F13.3°C 47.7°F8.7°C 74% 3.7 mph NW6.0 kmh NW 7.0 mph11.3 kmh 30.03 in1016.9 mb 0.00 in0.0 mm 0.00 in0.0 mm 0.00 in0.0 mm
09:45 AM 55.7°F13.2°C 47.5°F8.6°C 74% 3.2 mph NNW5.1 kmh NNW 6.0 mph9.7 kmh 30.03 in1016.9 mb 0.00 in0.0 mm 0.00 in0.0 mm 0.00 in0.0 mm
09:40 AM 55.7°F13.2°C 47.5°F8.6°C 74% 3.2 mph NNW5.1 kmh NNW 6.0 mph9.7 kmh 30.03 in1016.9 mb 0.00 in0.0 mm 0.00 in0.0 mm 0.00 in0.0 mm
09:35 AM 55.5°F13.1°C 47.7°F8.7°C 75% 3.6 mph NNW5.8 kmh NNW 8.0 mph12.9 kmh 30.03 in1016.9 mb 0.00 in0.0 mm 0.00 in0.0 mm 0.00 in0.0 mm
09:30 AM 55.4°F13.0°C 47.6°F8.7°C 75% 5.0 mph NNW8.0 kmh NNW 8.0 mph12.9 kmh 30.03 in1016.9 mb 0.00 in0.0 mm 0.00 in0.0 mm 0.00 in0.0 mm
09:25 AM 55.4°F13.0°C 47.6°F8.7°C 75% 3.9 mph NW6.3 kmh NW 8.0 mph12.9 kmh 30.03 in1016.9 mb 0.00 in0.0 mm 0.00 in0.0 mm 0.00 in0.0 mm
09:20 AM 55.4°F13.0°C 47.6°F8.7°C 75% 4.5 mph NNW7.2 kmh NNW 10.0 mph16.1 kmh 30.03 in1016.9 mb 0.00 in0.0 mm 0.00 in0.0 mm 0.00 in0.0 mm
09:15 AM 55.4°F13.0°C 47.6°F8.7°C 75% 5.6 mph NNW9.0 kmh NNW 10.0 mph16.1 kmh 30.03 in1016.9 mb 0.00 in0.0 mm 0.00 in0.0 mm 0.00 in0.0 mm
09:10 AM 55.5°F13.1°C 47.7°F8.7°C 75% 4.6 mph N7.4 kmh N 9.0 mph14.5 kmh 30.03 in1016.9 mb 0.00 in0.0 mm 0.00 in0.0 mm 0.00 in0.0 mm
09:05 AM 55.5°F13.1°C 47.7°F8.7°C 75% 5.0 mph NW8.0 kmh NW 9.0 mph14.5 kmh 30.02 in1016.6 mb 0.00 in0.0 mm 0.00 in0.0 mm 0.00 in0.0 mm
09:00 AM 55.6°F13.1°C 48.2°F9.0°C 76% 3.7 mph NNW6.0 kmh NNW 8.0 mph12.9 kmh 30.02 in1016.6 mb 0.00 in0.0 mm 0.00 in0.0 mm 0.00 in0.0 mm
08:55 AM 55.6°F13.1°C 48.2°F9.0°C 76% 5.3 mph NNW8.5 kmh NNW 8.0 mph12.9 kmh 30.02 in1016.6 mb 0.00 in0.0 mm 0.00 in0.0 mm 0.00 in0.0 mm
08:50 AM 55.7°F13.2°C 48.6°F9.2°C 77% 3.8 mph NNW6.1 kmh NNW 7.0 mph11.3 kmh 30.01 in1016.3 mb 0.00 in0.0 mm 0.00 in0.0 mm 0.00 in0.0 mm
08:45 AM 55.7°F13.2°C 48.9°F9.4°C 78% 3.6 mph NW5.8 kmh NW 7.0 mph11.3 kmh 30.01 in1016.3 mb 0.00 in0.0 mm 0.00 in0.0 mm 0.00 in0.0 mm
08:40 AM 56.0°F13.3°C 49.6°F9.8°C 79% 2.9 mph NW4.7 kmh NW 6.0 mph9.7 kmh 30.00 in1015.9 mb 0.00 in0.0 mm 0.00 in0.0 mm 0.00 in0.0 mm
08:35 AM 56.0°F13.3°C 50.3°F10.2°C 81% 0.8 mph WNW1.3 kmh WNW 3.0 mph4.8 kmh 30.00 in1015.9 mb 0.00 in0.0 mm 0.00 in0.0 mm 0.00 in0.0 mm
08:30 AM 56.0°F13.3°C 50.3°F10.2°C 81% 0.3 mph WNW0.5 kmh WNW 2.0 mph3.2 kmh 30.00 in1015.9 mb 0.00 in0.0 mm 0.00 in0.0 mm 0.00 in0.0 mm
08:25 AM 56.0°F13.3°C 50.3°F10.2°C 81% 0.9 mph WNW1.4 kmh WNW 2.0 mph3.2 kmh 30.00 in1015.9 mb 0.00 in0.0 mm 0.00 in0.0 mm 0.00 in0.0 mm
08:20 AM 56.0°F13.3°C 50.6°F10.3°C 82% 0.7 mph WNW1.1 kmh WNW 2.0 mph3.2 kmh 30.00 in1015.9 mb 0.00 in0.0 mm 0.00 in0.0 mm 0.00 in0.0 mm
08:15 AM 56.0°F13.3°C 50.6°F10.3°C 82% 0.7 mph WNW1.1 kmh WNW 2.0 mph3.2 kmh 30.00 in1015.9 mb 0.00 in0.0 mm 0.00 in0.0 mm 0.00 in0.0 mm
08:10 AM 55.9°F13.3°C 50.5°F10.3°C 82% Calm Calm 3.0 mph4.8 kmh 30.00 in1015.9 mb 0.00 in0.0 mm 0.00 in0.0 mm 0.00 in0.0 mm
08:05 AM 55.9°F13.3°C 50.5°F10.3°C 82% 1.1 mph WNW1.8 kmh WNW 3.0 mph4.8 kmh 29.99 in1015.6 mb 0.00 in0.0 mm 0.00 in0.0 mm 0.00 in0.0 mm
08:00 AM 55.9°F13.3°C 50.8°F10.4°C 83% 0.9 mph WNW1.4 kmh WNW 4.0 mph6.4 kmh 30.00 in1015.9 mb 0.00 in0.0 mm 0.00 in0.0 mm 0.00 in0.0 mm
07:55 AM 55.9°F13.3°C 50.8°F10.4°C 83% 1.5 mph WNW2.4 kmh WNW 4.0 mph6.4 kmh 30.00 in1015.9 mb 0.00 in0.0 mm 0.00 in0.0 mm 0.00 in0.0 mm
07:50 AM 55.9°F13.3°C 50.8°F10.4°C 83% 1.3 mph WNW2.1 kmh WNW 3.0 mph4.8 kmh 30.00 in1015.9 mb 0.00 in0.0 mm 0.00 in0.0 mm 0.00 in0.0 mm
07:45 AM 55.9°F13.3°C 50.8°F10.4°C 83% 1.0 mph WNW1.6 kmh WNW 4.0 mph6.4 kmh 30.00 in1015.9 mb 0.00 in0.0 mm 0.00 in0.0 mm 0.00 in0.0 mm
07:40 AM 55.9°F13.3°C 50.8°F10.4°C 83% 1.7 mph WNW2.7 kmh WNW 4.0 mph6.4 kmh 30.00 in1015.9 mb 0.00 in0.0 mm 0.00 in0.0 mm 0.00 in0.0 mm
07:35 AM 55.9°F13.3°C 50.8°F10.4°C 83% 1.4 mph W2.3 kmh W 4.0 mph6.4 kmh 29.99 in1015.6 mb 0.00 in0.0 mm 0.00 in0.0 mm 0.00 in0.0 mm
07:30 AM 55.9°F13.3°C 50.8°F10.4°C 83% 1.6 mph W2.6 kmh W 4.0 mph6.4 kmh 29.99 in1015.6 mb 0.00 in0.0 mm 0.00 in0.0 mm 0.00 in0.0 mm
07:25 AM 55.9°F13.3°C 50.8°F10.4°C 83% 0.2 mph WSW0.3 kmh WSW 3.0 mph4.8 kmh 29.99 in1015.6 mb 0.00 in0.0 mm 0.00 in0.0 mm 0.00 in0.0 mm
07:20 AM 56.0°F13.3°C 50.9°F10.5°C 83% 1.3 mph WSW2.1 kmh WSW 4.0 mph6.4 kmh 29.99 in1015.6 mb 0.00 in0.0 mm 0.00 in0.0 mm 0.00 in0.0 mm
07:15 AM 55.9°F13.3°C 50.8°F10.4°C 83% 1.6 mph WSW2.6 kmh WSW 4.0 mph6.4 kmh 29.99 in1015.6 mb 0.00 in0.0 mm 0.00 in0.0 mm 0.00 in0.0 mm
07:10 AM 55.9°F13.3°C 50.8°F10.4°C 83% 1.8 mph W2.9 kmh W 4.0 mph6.4 kmh 29.98 in1015.2 mb 0.00 in0.0 mm 0.00 in0.0 mm 0.00 in0.0 mm
07:05 AM 56.0°F13.3°C 50.9°F10.5°C 83% 1.5 mph WNW2.4 kmh WNW 3.0 mph4.8 kmh 29.98 in1015.2 mb 0.00 in0.0 mm 0.00 in0.0 mm 0.00 in0.0 mm
07:00 AM 55.9°F13.3°C 50.8°F10.4°C 83% 1.5 mph SW2.4 kmh SW 3.0 mph4.8 kmh 29.98 in1015.2 mb 0.00 in0.0 mm 0.00 in0.0 mm 0.00 in0.0 mm
06:55 AM 55.9°F13.3°C 50.8°F10.4°C 83% 0.9 mph SW1.4 kmh SW 3.0 mph4.8 kmh 29.98 in1015.2 mb 0.00 in0.0 mm 0.00 in0.0 mm 0.00 in0.0 mm
06:50 AM 55.9°F13.3°C 50.8°F10.4°C 83% 1.5 mph SW2.4 kmh SW 4.0 mph6.4 kmh 29.98 in1015.2 mb 0.00 in0.0 mm 0.00 in0.0 mm 0.00 in0.0 mm
06:45 AM 55.8°F13.2°C 50.7°F10.4°C 83% 1.3 mph SW2.1 kmh SW 4.0 mph6.4 kmh 29.97 in1014.9 mb 0.00 in0.0 mm 0.00 in0.0 mm 0.00 in0.0 mm
06:40 AM 55.7°F13.2°C 50.3°F10.2°C 82% 1.1 mph SW1.8 kmh SW 4.0 mph6.4 kmh 29.97 in1014.9 mb 0.00 in0.0 mm 0.00 in0.0 mm 0.00 in0.0 mm
06:35 AM 55.7°F13.2°C 50.3°F10.2°C 82% 1.5 mph SW2.4 kmh SW 4.0 mph6.4 kmh 29.97 in1014.9 mb 0.00 in0.0 mm 0.00 in0.0 mm 0.00 in0.0 mm
06:30 AM 55.8°F13.2°C 50.4°F10.2°C 82% 2.2 mph SW3.5 kmh SW 5.0 mph8.0 kmh 29.97 in1014.9 mb 0.00 in0.0 mm 0.00 in0.0 mm 0.00 in0.0 mm
06:25 AM 55.8°F13.2°C 50.1°F10.1°C 81% 2.3 mph SW3.7 kmh SW 6.0 mph9.7 kmh 29.97 in1014.9 mb 0.00 in0.0 mm 0.00 in0.0 mm 0.00 in0.0 mm
06:20 AM 55.8°F13.2°C 50.1°F10.1°C 81% 2.7 mph SW4.3 kmh SW 6.0 mph9.7 kmh 29.97 in1014.9 mb 0.00 in0.0 mm 0.00 in0.0 mm 0.00 in0.0 mm
06:15 AM 55.7°F13.2°C 50.0°F10.0°C 81% 1.8 mph SW2.9 kmh SW 4.0 mph6.4 kmh 29.97 in1014.9 mb 0.00 in0.0 mm 0.00 in0.0 mm 0.00 in0.0 mm
06:10 AM 55.9°F13.3°C 50.2°F10.1°C 81% 2.0 mph SSW3.2 kmh SSW 6.0 mph9.7 kmh 29.97 in1014.9 mb 0.00 in0.0 mm 0.00 in0.0 mm 0.00 in0.0 mm
06:05 AM 55.7°F13.2°C 50.0°F10.0°C 81% 2.2 mph SSW3.5 kmh SSW 6.0 mph9.7 kmh 29.96 in1014.6 mb 0.00 in0.0 mm 0.00 in0.0 mm 0.00 in0.0 mm
06:00 AM 55.7°F13.2°C 49.6°F9.8°C 80% 1.4 mph SSW2.3 kmh SSW 7.0 mph11.3 kmh 29.96 in1014.6 mb 0.00 in0.0 mm 0.00 in0.0 mm 0.00 in0.0 mm
05:55 AM 55.7°F13.2°C 49.6°F9.8°C 80% 1.5 mph SSW2.4 kmh SSW 7.0 mph11.3 kmh 29.96 in1014.6 mb 0.00 in0.0 mm 0.00 in0.0 mm 0.00 in0.0 mm
05:50 AM 55.8°F13.2°C 49.7°F9.8°C 80% 2.4 mph SSW3.9 kmh SSW 8.0 mph12.9 kmh 29.97 in1014.9 mb 0.00 in0.0 mm 0.00 in0.0 mm 0.00 in0.0 mm
05:45 AM 55.9°F13.3°C 49.8°F9.9°C 80% 3.5 mph SW5.6 kmh SW 8.0 mph12.9 kmh 29.97 in1014.9 mb 0.00 in0.0 mm 0.00 in0.0 mm 0.00 in0.0 mm
05:40 AM 55.9°F13.3°C 49.8°F9.9°C 80% 2.4 mph SW3.9 kmh SW 12.0 mph19.3 kmh 29.97 in1014.9 mb 0.00 in0.0 mm 0.00 in0.0 mm 0.00 in0.0 mm
05:35 AM 55.9°F13.3°C 49.8°F9.9°C 80% 3.3 mph SW5.3 kmh SW 12.0 mph19.3 kmh 29.97 in1014.9 mb 0.00 in0.0 mm 0.00 in0.0 mm 0.00 in0.0 mm
05:30 AM 55.7°F13.2°C 49.3°F9.6°C 79% 1.8 mph S2.9 kmh S 5.0 mph8.0 kmh 29.97 in1014.9 mb 0.00 in0.0 mm 0.00 in0.0 mm 0.00 in0.0 mm
05:25 AM 55.6°F13.1°C 49.2°F9.6°C 79% 1.9 mph S3.1 kmh S 5.0 mph8.0 kmh 29.97 in1014.9 mb 0.00 in0.0 mm 0.00 in0.0 mm 0.00 in0.0 mm
05:20 AM 55.7°F13.2°C 49.3°F9.6°C 79% 2.4 mph SSW3.9 kmh SSW 5.0 mph8.0 kmh 29.97 in1014.9 mb 0.00 in0.0 mm 0.00 in0.0 mm 0.00 in0.0 mm
05:15 AM 55.7°F13.2°C 48.9°F9.4°C 78% 2.1 mph S3.4 kmh S 4.0 mph6.4 kmh 29.97 in1014.9 mb 0.00 in0.0 mm 0.00 in0.0 mm 0.00 in0.0 mm
05:10 AM 55.8°F13.2°C 49.0°F9.4°C 78% 1.7 mph S2.7 kmh S 4.0 mph6.4 kmh 29.97 in1014.9 mb 0.00 in0.0 mm 0.00 in0.0 mm 0.00 in0.0 mm
05:05 AM 55.9°F13.3°C 49.1°F9.5°C 78% 1.8 mph S2.9 kmh S 5.0 mph8.0 kmh 29.97 in1014.9 mb 0.00 in0.0 mm 0.00 in0.0 mm 0.00 in0.0 mm
05:00 AM 55.9°F13.3°C 49.1°F9.5°C 78% 2.7 mph SW4.3 kmh SW 5.0 mph8.0 kmh 29.97 in1014.9 mb 0.00 in0.0 mm 0.00 in0.0 mm 0.00 in0.0 mm
04:55 AM 55.9°F13.3°C 49.1°F9.5°C 78% 1.8 mph S2.9 kmh S 4.0 mph6.4 kmh 29.98 in1015.2 mb 0.00 in0.0 mm 0.00 in0.0 mm 0.00 in0.0 mm
04:50 AM 55.9°F13.3°C 49.1°F9.5°C 78% 1.4 mph SSW2.3 kmh SSW 4.0 mph6.4 kmh 29.98 in1015.2 mb 0.00 in0.0 mm 0.00 in0.0 mm 0.00 in0.0 mm
04:45 AM 55.9°F13.3°C 49.1°F9.5°C 78% 1.4 mph SSW2.3 kmh SSW 6.0 mph9.7 kmh 29.98 in1015.2 mb 0.00 in0.0 mm 0.00 in0.0 mm 0.00 in0.0 mm
04:40 AM 55.9°F13.3°C 48.8°F9.3°C 77% 1.3 mph SSW2.1 kmh SSW 6.0 mph9.7 kmh 29.98 in1015.2 mb 0.00 in0.0 mm 0.00 in0.0 mm 0.00 in0.0 mm
04:35 AM 56.0°F13.3°C 48.9°F9.4°C 77% 1.9 mph SW3.1 kmh SW 5.0 mph8.0 kmh 29.98 in1015.2 mb 0.00 in0.0 mm 0.00 in0.0 mm 0.00 in0.0 mm
04:30 AM 56.0°F13.3°C 48.9°F9.4°C 77% 2.0 mph SW3.2 kmh SW 6.0 mph9.7 kmh 29.98 in1015.2 mb 0.00 in0.0 mm 0.00 in0.0 mm 0.00 in0.0 mm
04:25 AM 56.0°F13.3°C 48.9°F9.4°C 77% 2.6 mph SW4.2 kmh SW 7.0 mph11.3 kmh 29.98 in1015.2 mb 0.00 in0.0 mm 0.00 in0.0 mm 0.00 in0.0 mm
04:20 AM 56.0°F13.3°C 48.9°F9.4°C 77% 2.4 mph SW3.9 kmh SW 7.0 mph11.3 kmh 29.99 in1015.6 mb 0.00 in0.0 mm 0.00 in0.0 mm 0.00 in0.0 mm
04:15 AM 56.1°F13.4°C 49.0°F9.4°C 77% 2.8 mph SSW4.5 kmh SSW 7.0 mph11.3 kmh 29.99 in1015.6 mb 0.00 in0.0 mm 0.00 in0.0 mm 0.00 in0.0 mm
04:10 AM 56.1°F13.4°C 49.0°F9.4°C 77% 3.4 mph SW5.5 kmh SW 7.0 mph11.3 kmh 29.99 in1015.6 mb 0.00 in0.0 mm 0.00 in0.0 mm 0.00 in0.0 mm
04:05 AM 56.1°F13.4°C 49.0°F9.4°C 77% 3.6 mph SW5.8 kmh SW 6.0 mph9.7 kmh 29.99 in1015.6 mb 0.00 in0.0 mm 0.00 in0.0 mm 0.00 in0.0 mm
04:00 AM 56.1°F13.4°C 49.0°F9.4°C 77% 2.6 mph SW4.2 kmh SW 8.0 mph12.9 kmh 29.99 in1015.6 mb 0.00 in0.0 mm 0.00 in0.0 mm 0.00 in0.0 mm
03:55 AM 56.0°F13.3°C 48.9°F9.4°C 77% 3.1 mph SW5.0 kmh SW 8.0 mph12.9 kmh 29.99 in1015.6 mb 0.00 in0.0 mm 0.00 in0.0 mm 0.00 in0.0 mm
03:50 AM 56.0°F13.3°C 48.9°F9.4°C 77% 1.7 mph SW2.7 kmh SW 6.0 mph9.7 kmh 29.99 in1015.6 mb 0.00 in0.0 mm 0.00 in0.0 mm 0.00 in0.0 mm
03:45 AM 56.0°F13.3°C 48.9°F9.4°C 77% 1.8 mph S2.9 kmh S 7.0 mph11.3 kmh 30.00 in1015.9 mb 0.00 in0.0 mm 0.00 in0.0 mm 0.00 in0.0 mm
03:40 AM 56.0°F13.3°C 48.5°F9.2°C 76% 2.3 mph SSW3.7 kmh SSW 7.0 mph11.3 kmh 30.00 in1015.9 mb 0.00 in0.0 mm 0.00 in0.0 mm 0.00 in0.0 mm
03:35 AM 56.0°F13.3°C 48.5°F9.2°C 76% 1.3 mph SSW2.1 kmh SSW 8.0 mph12.9 kmh 30.00 in1015.9 mb 0.00 in0.0 mm 0.00 in0.0 mm 0.00 in0.0 mm
03:30 AM 56.0°F13.3°C 48.5°F9.2°C 76% 2.5 mph SSW4.0 kmh SSW 8.0 mph12.9 kmh 29.99 in1015.6 mb 0.00 in0.0 mm 0.00 in0.0 mm 0.00 in0.0 mm
03:25 AM 56.1°F13.4°C 48.6°F9.2°C 76% 2.7 mph S4.3 kmh S 6.0 mph9.7 kmh 30.00 in1015.9 mb 0.00 in0.0 mm 0.00 in0.0 mm 0.00 in0.0 mm
03:20 AM 56.1°F13.4°C 48.6°F9.2°C 76% 2.3 mph S3.7 kmh S 6.0 mph9.7 kmh 30.00 in1015.9 mb 0.00 in0.0 mm 0.00 in0.0 mm 0.00 in0.0 mm
03:15 AM 56.2°F13.4°C 48.4°F9.1°C 75% 2.9 mph S4.7 kmh S 6.0 mph9.7 kmh 30.00 in1015.9 mb 0.00 in0.0 mm 0.00 in0.0 mm 0.00 in0.0 mm
03:10 AM 56.3°F13.5°C 48.5°F9.2°C 75% 2.6 mph S4.2 kmh S 5.0 mph8.0 kmh 30.00 in1015.9 mb 0.00 in0.0 mm 0.00 in0.0 mm 0.00 in0.0 mm
03:05 AM 56.3°F13.5°C 48.5°F9.2°C 75% 2.3 mph S3.7 kmh S 7.0 mph11.3 kmh 30.00 in1015.9 mb 0.00 in0.0 mm 0.00 in0.0 mm 0.00 in0.0 mm
03:00 AM 56.4°F13.6°C 48.6°F9.2°C 75% 2.7 mph SSW4.3 kmh SSW 7.0 mph11.3 kmh 30.00 in1015.9 mb 0.00 in0.0 mm 0.00 in0.0 mm 0.00 in0.0 mm
02:55 AM 56.4°F13.6°C 48.6°F9.2°C 75% 2.4 mph SSW3.9 kmh SSW 6.0 mph9.7 kmh 30.00 in1015.9 mb 0.00 in0.0 mm 0.00 in0.0 mm 0.00 in0.0 mm
02:50 AM 56.3°F13.5°C 48.1°F8.9°C 74% 1.9 mph SSW3.1 kmh SSW 7.0 mph11.3 kmh 30.00 in1015.9 mb 0.00 in0.0 mm 0.00 in0.0 mm 0.00 in0.0 mm
02:45 AM 56.4°F13.6°C 48.2°F9.0°C 74% 2.7 mph SSW4.3 kmh SSW 8.0 mph12.9 kmh 30.00 in1015.9 mb 0.00 in0.0 mm 0.00 in0.0 mm 0.00 in0.0 mm
02:40 AM 56.5°F13.6°C 48.3°F9.1°C 74% 2.7 mph SSW4.3 kmh SSW 8.0 mph12.9 kmh 30.00 in1015.9 mb 0.00 in0.0 mm 0.00 in0.0 mm 0.00 in0.0 mm
02:35 AM 56.7°F13.7°C 48.5°F9.2°C 74% 2.3 mph SSW3.7 kmh SSW 6.0 mph9.7 kmh 30.00 in1015.9 mb 0.00 in0.0 mm 0.00 in0.0 mm 0.00 in0.0 mm
02:30 AM 56.6°F13.7°C 48.4°F9.1°C 74% 3.1 mph S5.0 kmh S 6.0 mph9.7 kmh 30.01 in1016.3 mb 0.00 in0.0 mm 0.00 in0.0 mm 0.00 in0.0 mm
02:25 AM 56.7°F13.7°C 48.1°F8.9°C 73% 2.6 mph S4.2 kmh S 6.0 mph9.7 kmh 30.01 in1016.3 mb 0.00 in0.0 mm 0.00 in0.0 mm 0.00 in0.0 mm
02:20 AM 56.7°F13.7°C 48.1°F8.9°C 73% 1.9 mph SSW3.1 kmh SSW 7.0 mph11.3 kmh 30.01 in1016.3 mb 0.00 in0.0 mm 0.00 in0.0 mm 0.00 in0.0 mm
02:15 AM 56.7°F13.7°C 48.1°F8.9°C 73% 2.9 mph S4.7 kmh S 8.0 mph12.9 kmh 30.01 in1016.3 mb 0.00 in0.0 mm 0.00 in0.0 mm 0.00 in0.0 mm
02:10 AM 56.8°F13.8°C 48.2°F9.0°C 73% 3.5 mph SW5.6 kmh SW 10.0 mph16.1 kmh 30.01 in1016.3 mb 0.00 in0.0 mm 0.00 in0.0 mm 0.00 in0.0 mm
02:05 AM 56.8°F13.8°C 48.2°F9.0°C 73% 3.3 mph SW5.3 kmh SW 10.0 mph16.1 kmh 30.01 in1016.3 mb 0.00 in0.0 mm 0.00 in0.0 mm 0.00 in0.0 mm
02:00 AM 56.8°F13.8°C 48.2°F9.0°C 73% 2.6 mph SSW4.2 kmh SSW 7.0 mph11.3 kmh 30.01 in1016.3 mb 0.00 in0.0 mm 0.00 in0.0 mm 0.00 in0.0 mm
01:55 AM 56.8°F13.8°C 48.2°F9.0°C 73% 3.5 mph SW5.6 kmh SW 7.0 mph11.3 kmh 30.01 in1016.3 mb 0.00 in0.0 mm 0.00 in0.0 mm 0.00 in0.0 mm
01:50 AM 56.8°F13.8°C 48.2°F9.0°C 73% 2.6 mph SW4.2 kmh SW 7.0 mph11.3 kmh 30.01 in1016.3 mb 0.00 in0.0 mm 0.00 in0.0 mm 0.00 in0.0 mm
01:45 AM 56.8°F13.8°C 48.2°F9.0°C 73% 3.5 mph SW5.6 kmh SW 9.0 mph14.5 kmh 30.01 in1016.3 mb 0.00 in0.0 mm 0.00 in0.0 mm 0.00 in0.0 mm
01:40 AM 56.8°F13.8°C 48.2°F9.0°C 73% 3.0 mph SSW4.8 kmh SSW 9.0 mph14.5 kmh 30.01 in1016.3 mb 0.00 in0.0 mm 0.00 in0.0 mm 0.00 in0.0 mm
01:35 AM 56.9°F13.8°C 48.0°F8.9°C 72% 2.2 mph S3.5 kmh S 10.0 mph16.1 kmh 30.01 in1016.3 mb 0.00 in0.0 mm 0.00 in0.0 mm 0.00 in0.0 mm
01:30 AM 56.9°F13.8°C 48.0°F8.9°C 72% 4.0 mph SSW6.4 kmh SSW 10.0 mph16.1 kmh 30.01 in1016.3 mb 0.00 in0.0 mm 0.00 in0.0 mm 0.00 in0.0 mm
01:25 AM 56.9°F13.8°C 48.0°F8.9°C 72% 2.6 mph S4.2 kmh S 10.0 mph16.1 kmh 30.01 in1016.3 mb 0.00 in0.0 mm 0.00 in0.0 mm 0.00 in0.0 mm
01:20 AM 56.8°F13.8°C 47.9°F8.8°C 72% 3.2 mph SSW5.1 kmh SSW 10.0 mph16.1 kmh 30.01 in1016.3 mb 0.00 in0.0 mm 0.00 in0.0 mm 0.00 in0.0 mm
01:15 AM 56.9°F13.8°C 48.0°F8.9°C 72% 2.0 mph S3.2 kmh S 9.0 mph14.5 kmh 30.01 in1016.3 mb 0.00 in0.0 mm 0.00 in0.0 mm 0.00 in0.0 mm
01:10 AM 56.9°F13.8°C 47.6°F8.7°C 71% 3.5 mph SSW5.6 kmh SSW 9.0 mph14.5 kmh 30.02 in1016.6 mb 0.00 in0.0 mm 0.00 in0.0 mm 0.00 in0.0 mm
01:05 AM 56.9°F13.8°C 47.6°F8.7°C 71% 3.1 mph S5.0 kmh S 8.0 mph12.9 kmh 30.02 in1016.6 mb 0.00 in0.0 mm 0.00 in0.0 mm 0.00 in0.0 mm
01:00 AM 56.9°F13.8°C 47.6°F8.7°C 71% 3.1 mph SSW5.0 kmh SSW 8.0 mph12.9 kmh 30.02 in1016.6 mb 0.00 in0.0 mm 0.00 in0.0 mm 0.00 in0.0 mm
12:55 AM 56.9°F13.8°C 47.6°F8.7°C 71% 2.8 mph SSW4.5 kmh SSW 7.0 mph11.3 kmh 30.02 in1016.6 mb 0.00 in0.0 mm 0.00 in0.0 mm 0.00 in0.0 mm
12:50 AM 57.0°F13.9°C 47.7°F8.7°C 71% 3.3 mph S5.3 kmh S 9.0 mph14.5 kmh 30.02 in1016.6 mb 0.00 in0.0 mm 0.00 in0.0 mm 0.00 in0.0 mm
12:45 AM 57.0°F13.9°C 47.7°F8.7°C 71% 3.5 mph SSW5.6 kmh SSW 9.0 mph14.5 kmh 30.02 in1016.6 mb 0.00 in0.0 mm 0.00 in0.0 mm 0.00 in0.0 mm
12:40 AM 57.0°F13.9°C 47.7°F8.7°C 71% 2.9 mph SSW4.7 kmh SSW 8.0 mph12.9 kmh 30.03 in1016.9 mb 0.00 in0.0 mm 0.00 in0.0 mm 0.00 in0.0 mm
12:35 AM 57.0°F13.9°C 47.7°F8.7°C 71% 2.4 mph SSW3.9 kmh SSW 11.0 mph17.7 kmh 30.03 in1016.9 mb 0.00 in0.0 mm 0.00 in0.0 mm 0.00 in0.0 mm
12:30 AM 57.0°F13.9°C 47.3°F8.5°C 70% 2.9 mph SSW4.7 kmh SSW 11.0 mph17.7 kmh 30.03 in1016.9 mb 0.00 in0.0 mm 0.00 in0.0 mm 0.00 in0.0 mm
12:25 AM 57.1°F13.9°C 47.4°F8.6°C 70% 4.0 mph SSW6.4 kmh SSW 9.0 mph14.5 kmh 30.03 in1016.9 mb 0.00 in0.0 mm 0.00 in0.0 mm 0.00 in0.0 mm
12:20 AM 57.1°F13.9°C 47.4°F8.6°C 70% 3.5 mph SSW5.6 kmh SSW 9.0 mph14.5 kmh 30.03 in1016.9 mb 0.00 in0.0 mm 0.00 in0.0 mm 0.00 in0.0 mm
12:15 AM 57.0°F13.9°C 47.3°F8.5°C 70% 2.8 mph S4.5 kmh S 9.0 mph14.5 kmh 30.03 in1016.9 mb 0.00 in0.0 mm 0.00 in0.0 mm 0.00 in0.0 mm
12:10 AM 56.9°F13.8°C 47.2°F8.4°C 70% 4.0 mph SSW6.4 kmh SSW 10.0 mph16.1 kmh 30.03 in1016.9 mb 0.00 in0.0 mm 0.00 in0.0 mm 0.00 in0.0 mm
12:05 AM 56.7°F13.7°C 47.0°F8.3°C 70% 3.1 mph SW5.0 kmh SW 9.0 mph14.5 kmh 30.03 in1016.9 mb 0.00 in0.0 mm 0.00 in0.0 mm 0.00 in0.0 mm
12:00 AM 56.6°F13.7°C 46.9°F8.3°C 70% 4.3 mph SW6.9 kmh SW 8.0 mph12.9 kmh 30.03 in1016.9 mb 0.00 in0.0 mm 0.00 in0.0 mm 0.00 in0.0 mm